Time;durP1;ratioP1;P1;durP2;ratioP2;P2;SDS_P1;SDS_P2;PMS_P1;PMS_P2;Temp;Humidity;BMP_temperature;BMP_pressure;BME280_temperature;BME280_humidity;BME280_pressure;Samples;Min_cycle;Max_cycle;Signal;HPM_P1;HPM_P2
2021/06/02 00:01:30;;;;;;;11.70;8.05;;;17.80;56.50;;;;;;5024899;28;20647;-78
2021/06/02 00:04:01;;;;;;;12.20;8.15;;;17.80;56.40;;;;;;5008783;28;20116;-78
2021/06/02 00:06:29;;;;;;;9.90;7.40;;;17.70;56.60;;;;;;5026508;28;20037;-78
2021/06/02 00:08:56;;;;;;;11.75;7.55;;;17.70;57.00;;;;;;5027863;28;20087;-78
2021/06/02 00:11:22;;;;;;;12.18;7.45;;;17.60;57.10;;;;;;5023961;28;20037;-78
2021/06/02 00:13:48;;;;;;;10.15;6.43;;;17.60;57.40;;;;;;5027683;28;20361;-78
2021/06/02 00:16:14;;;;;;;8.80;6.78;;;17.50;57.70;;;;;;5038466;28;20034;-78
2021/06/02 00:18:41;;;;;;;9.13;6.70;;;17.50;58.20;;;;;;5028050;28;20496;-78
2021/06/02 00:21:07;;;;;;;10.10;7.00;;;17.50;58.30;;;;;;5025182;28;20456;-78
2021/06/02 00:23:33;;;;;;;9.07;6.72;;;17.50;58.40;;;;;;5021716;28;20042;-78
2021/06/02 00:26:01;;;;;;;10.00;7.10;;;17.40;58.50;;;;;;5024864;28;20037;-78
2021/06/02 00:28:27;;;;;;;10.60;7.60;;;17.40;58.80;;;;;;5008926;28;20156;-78
2021/06/02 00:30:54;;;;;;;10.40;8.10;;;17.30;59.10;;;;;;5021371;28;20464;-78
2021/06/02 00:33:21;;;;;;;11.80;8.50;;;17.20;59.40;;;;;;5024633;28;20033;-78
2021/06/02 00:35:47;;;;;;;9.52;7.88;;;17.10;59.50;;;;;;5027669;28;20040;-78
2021/06/02 00:38:13;;;;;;;10.55;8.25;;;17.10;59.70;;;;;;5026801;28;20060;-78
2021/06/02 00:40:46;;;;;;;12.65;7.97;;;17.10;59.90;;;;;;4999834;28;20038;-79
2021/06/02 00:43:16;;;;;;;9.57;7.40;;;17.00;60.00;;;;;;5001408;28;20065;-78
2021/06/02 00:45:46;;;;;;;10.45;7.65;;;17.10;60.10;;;;;;5012644;28;20043;-78
2021/06/02 00:48:17;;;;;;;12.18;7.95;;;17.00;59.90;;;;;;5011419;28;20085;-78
2021/06/02 00:50:48;;;;;;;14.25;8.07;;;17.00;60.20;;;;;;5025093;28;20559;-78
2021/06/02 00:53:15;;;;;;;10.07;7.32;;;17.00;59.70;;;;;;5018603;28;20519;-78
2021/06/02 00:55:41;;;;;;;11.77;8.27;;;17.00;60.00;;;;;;5019894;28;20482;-78
2021/06/02 00:58:19;;;;;;;12.50;8.05;;;17.00;59.90;;;;;;5018104;28;20053;-78
2021/06/02 01:00:45;;;;;;;11.75;8.57;;;16.90;59.90;;;;;;5026849;28;20037;-78
2021/06/02 01:03:12;;;;;;;11.32;8.52;;;16.90;60.00;;;;;;5026087;28;20086;-78
2021/06/02 01:05:38;;;;;;;10.88;8.50;;;16.80;60.20;;;;;;5011295;28;20034;-78
2021/06/02 01:08:04;;;;;;;12.30;8.52;;;16.80;60.40;;;;;;5011485;28;20053;-77
2021/06/02 01:10:31;;;;;;;12.32;8.73;;;16.60;60.40;;;;;;5012497;28;20026;-77
2021/06/02 01:12:58;;;;;;;12.23;8.60;;;16.60;60.50;;;;;;5028822;28;20042;-78
2021/06/02 01:15:25;;;;;;;11.15;8.48;;;16.60;60.90;;;;;;5003677;28;20116;-78
2021/06/02 01:17:51;;;;;;;10.20;8.27;;;16.50;60.90;;;;;;5020843;28;20073;-78
2021/06/02 01:20:18;;;;;;;12.35;8.80;;;16.50;60.90;;;;;;5024209;28;20115;-78
2021/06/02 01:22:45;;;;;;;10.80;8.25;;;16.50;61.10;;;;;;5023912;28;20443;-78
2021/06/02 01:25:12;;;;;;;11.75;8.85;;;16.40;61.10;;;;;;5026129;28;20035;-78
2021/06/02 01:27:39;;;;;;;10.13;8.48;;;16.40;61.40;;;;;;5001683;28;20030;-78
2021/06/02 01:30:10;;;;;;;11.35;8.10;;;16.40;61.40;;;;;;4997086;28;20035;-78
2021/06/02 01:32:57;;;;;;;10.45;8.25;;;16.40;61.60;;;;;;5001688;28;20033;-78
2021/06/02 01:35:46;;;;;;;9.65;8.30;;;16.30;61.30;;;;;;5030279;28;20176;-78
2021/06/02 01:38:25;;;;;;;12.30;8.80;;;16.30;61.50;;;;;;5020627;28;20124;-78
2021/06/02 01:41:27;;;;;;;13.93;8.85;;;16.30;61.40;;;;;;5009097;28;20112;-78
2021/06/02 01:44:24;;;;;;;13.02;8.65;;;16.30;61.50;;;;;;5002030;28;20131;-78
2021/06/02 01:47:10;;;;;;;11.93;8.52;;;16.20;61.60;;;;;;5023774;28;20037;-77
2021/06/02 01:49:51;;;;;;;12.82;9.00;;;16.20;61.80;;;;;;5023302;28;20038;-77
2021/06/02 01:52:41;;;;;;;11.88;9.27;;;16.20;62.00;;;;;;5010206;28;20131;-78
2021/06/02 01:55:19;;;;;;;14.05;8.68;;;16.10;62.30;;;;;;5025949;28;20037;-78
2021/06/02 01:58:03;;;;;;;17.60;8.60;;;16.10;62.50;;;;;;5022826;28;20041;-78
2021/06/02 02:00:49;;;;;;;11.60;9.13;;;16.10;62.40;;;;;;5020883;28;20623;-78
2021/06/02 02:03:36;;;;;;;11.68;7.93;;;16.00;62.60;;;;;;5015030;28;20034;-78
2021/06/02 02:06:06;;;;;;;11.18;8.45;;;16.00;62.70;;;;;;5015678;28;20284;-78
2021/06/02 02:08:49;;;;;;;11.18;9.15;;;16.00;62.70;;;;;;5023624;28;20088;-78
2021/06/02 02:11:32;;;;;;;11.55;8.73;;;16.00;62.50;;;;;;5025109;28;20038;-78
2021/06/02 02:14:26;;;;;;;11.48;8.70;;;15.90;62.90;;;;;;5021942;28;20053;-78
2021/06/02 02:16:54;;;;;;;10.88;8.13;;;15.90;62.70;;;;;;5007577;28;20275;-78
2021/06/02 02:19:38;;;;;;;10.55;8.43;;;15.80;62.70;;;;;;5011301;28;20034;-78
2021/06/02 02:22:30;;;;;;;10.98;8.73;;;15.80;62.70;;;;;;5011918;28;20486;-77
2021/06/02 02:25:01;;;;;;;12.95;8.70;;;15.80;62.70;;;;;;5007335;28;20041;-78
2021/06/02 02:27:59;;;;;;;10.82;8.43;;;15.80;62.90;;;;;;5013709;28;20045;-78
2021/06/02 02:30:56;;;;;;;11.40;8.48;;;15.80;62.80;;;;;;5020310;28;20083;-78
2021/06/02 02:33:50;;;;;;;12.95;9.15;;;15.70;63.10;;;;;;5037608;28;20135;-78
2021/06/02 02:36:26;;;;;;;11.57;8.43;;;15.60;63.10;;;;;;5021846;28;20187;-77
2021/06/02 02:39:10;;;;;;;11.85;9.00;;;15.60;63.30;;;;;;5025229;28;20042;-78
2021/06/02 02:42:20;;;;;;;12.70;8.82;;;15.60;63.40;;;;;;5000700;28;20022;-78
2021/06/02 02:45:04;;;;;;;13.18;9.35;;;15.60;63.70;;;;;;5019338;28;20036;-78
2021/06/02 02:47:44;;;;;;;11.93;9.18;;;15.60;63.70;;;;;;5007401;28;20034;-78
2021/06/02 02:50:58;;;;;;;13.45;9.32;;;15.60;63.90;;;;;;4998981;28;20427;-78
2021/06/02 02:53:43;;;;;;;12.30;9.50;;;15.50;63.90;;;;;;4996823;28;20053;-78
2021/06/02 02:56:11;;;;;;;;;;;15.40;64.10;;;;;;5006702;28;20555;-78
2021/06/02 02:58:49;;;;;;;13.80;8.52;;;15.40;64.40;;;;;;4994512;28;20413;-79
2021/06/02 03:01:21;;;;;;;12.70;10.27;;;15.40;64.60;;;;;;4992696;28;20458;-78
2021/06/02 03:03:59;;;;;;;10.90;9.00;;;15.30;64.80;;;;;;5002634;28;20027;-78
2021/06/02 03:06:30;;;;;;;13.60;9.88;;;15.30;64.90;;;;;;5012100;28;20038;-78
2021/06/02 03:09:18;;;;;;;11.43;9.48;;;15.30;65.00;;;;;;5022699;28;20056;-78
2021/06/02 03:11:44;;;;;;;11.75;9.52;;;15.20;65.10;;;;;;5007052;28;20034;-78
2021/06/02 03:14:15;;;;;;;12.82;10.23;;;15.10;65.20;;;;;;5003999;28;20106;-78
2021/06/02 03:16:45;;;;;;;13.95;10.32;;;15.10;65.30;;;;;;5022299;28;20088;-79
2021/06/02 03:19:17;;;;;;;14.90;9.82;;;15.10;65.40;;;;;;5012765;28;20039;-78
2021/06/02 03:22:03;;;;;;;14.05;9.93;;;15.10;65.60;;;;;;5030298;28;20116;-78
2021/06/02 03:24:28;;;;;;;11.35;9.68;;;15.00;65.80;;;;;;5003745;28;20154;-78
2021/06/02 03:27:13;;;;;;;11.48;9.98;;;15.00;65.90;;;;;;5004427;28;20042;-78
2021/06/02 03:30:16;;;;;;;13.68;10.32;;;14.90;66.00;;;;;;5016998;28;20069;-78
2021/06/02 03:33:15;;;;;;;13.93;10.25;;;15.00;65.90;;;;;;5009146;28;20038;-78
2021/06/02 03:36:02;;;;;;;13.60;10.48;;;14.90;66.20;;;;;;5009849;28;20045;-79
2021/06/02 03:39:05;;;;;;;12.52;10.88;;;14.90;66.40;;;;;;5010018;28;20125;-78
2021/06/02 03:41:55;;;;;;;16.02;11.45;;;14.90;66.40;;;;;;5025617;28;20038;-79
2021/06/02 03:44:47;;;;;;;13.52;10.45;;;14.80;66.50;;;;;;5029275;28;20425;-79
2021/06/02 03:47:34;;;;;;;13.70;10.25;;;14.90;66.40;;;;;;5027350;28;20042;-79
2021/06/02 03:50:12;;;;;;;16.25;10.20;;;14.80;66.40;;;;;;5027343;28;20156;-79
2021/06/02 03:52:49;;;;;;;12.77;10.48;;;14.80;66.30;;;;;;5027327;28;20029;-79
2021/06/02 03:55:33;;;;;;;13.48;9.27;;;14.80;66.40;;;;;;5027639;28;20115;-79
2021/06/02 03:58:45;;;;;;;12.80;10.18;;;14.80;66.50;;;;;;5022553;28;20041;-79
2021/06/02 04:01:34;;;;;;;12.80;9.95;;;14.80;66.60;;;;;;5001593;28;20120;-79
2021/06/02 04:04:03;;;;;;;13.77;10.88;;;14.80;66.60;;;;;;5003469;28;20030;-78
2021/06/02 04:06:49;;;;;;;12.43;10.30;;;14.80;66.70;;;;;;5010934;28;20060;-78
2021/06/02 04:09:26;;;;;;;13.50;9.93;;;14.70;66.80;;;;;;5003116;28;20030;-78
2021/06/02 04:12:02;;;;;;;13.30;10.25;;;14.70;67.00;;;;;;5025803;28;20423;-79
2021/06/02 04:14:36;;;;;;;14.82;10.20;;;14.80;66.80;;;;;;5023011;28;20524;-78
2021/06/02 04:17:02;;;;;;;13.88;10.02;;;14.80;66.70;;;;;;5021405;28;20511;-79
2021/06/02 04:19:32;;;;;;;14.02;10.20;;;14.80;66.80;;;;;;5030718;28;20033;-79
2021/06/02 04:22:04;;;;;;;12.70;9.40;;;14.80;66.80;;;;;;5021814;28;20030;-79
2021/06/02 04:24:31;;;;;;;14.25;10.57;;;14.80;67.00;;;;;;5018266;28;20045;-79
2021/06/02 04:26:58;;;;;;;12.60;10.38;;;14.90;67.00;;;;;;5035318;28;20034;-79
2021/06/02 04:29:26;;;;;;;14.88;10.90;;;15.00;66.70;;;;;;5017236;28;20042;-79
2021/06/02 04:31:54;;;;;;;13.48;10.30;;;15.00;66.50;;;;;;5018620;28;20065;-79
2021/06/02 04:34:21;;;;;;;12.43;10.52;;;14.90;66.70;;;;;;5018520;28;20045;-78
2021/06/02 04:36:55;;;;;;;11.20;9.85;;;15.00;66.70;;;;;;5017471;28;20849;-78
2021/06/02 04:39:22;;;;;;;13.07;10.23;;;15.00;66.80;;;;;;5016304;28;20056;-79
2021/06/02 04:41:47;;;;;;;15.88;10.52;;;15.10;66.80;;;;;;5024200;28;20086;-79
2021/06/02 04:44:15;;;;;;;12.65;9.43;;;15.10;66.70;;;;;;5013977;28;20038;-79
2021/06/02 04:46:45;;;;;;;12.70;10.57;;;15.10;66.70;;;;;;5018849;28;20037;-78
2021/06/02 04:49:13;;;;;;;13.68;9.93;;;15.10;66.30;;;;;;5016118;28;20485;-79
2021/06/02 04:52:00;;;;;;;11.90;10.40;;;15.10;66.60;;;;;;5017595;28;20030;-79
2021/06/02 04:54:44;;;;;;;12.38;11.02;;;15.30;66.30;;;;;;5022879;28;20420;-80
2021/06/02 04:57:47;;;;;;;13.90;10.07;;;15.20;66.40;;;;;;5020302;28;20037;-79
2021/06/02 05:00:55;;;;;;;12.27;10.27;;;15.30;66.50;;;;;;5023975;28;20072;-79
2021/06/02 05:03:36;;;;;;;13.40;10.07;;;15.40;66.30;;;;;;5021458;28;20112;-80
2021/06/02 05:06:39;;;;;;;16.05;10.82;;;15.40;66.20;;;;;;5022227;28;20037;-79
2021/06/02 05:09:25;;;;;;;13.30;10.90;;;15.50;66.00;;;;;;5020208;28;20041;-79
2021/06/02 05:12:15;;;;;;;13.68;9.55;;;15.70;65.90;;;;;;5016936;28;20093;-78
2021/06/02 05:15:09;;;;;;;13.52;9.15;;;16.70;63.40;;;;;;5025127;28;20040;-78
2021/06/02 05:17:56;;;;;;;13.05;8.68;;;19.30;55.80;;;;;;5020443;28;20049;-78
2021/06/02 05:23:36;;;;;;;13.70;8.35;;;22.60;46.20;;;;;;5019610;28;20121;-77
2021/06/02 05:26:27;;;;;;;10.88;7.40;;;23.30;43.90;;;;;;5014228;28;20042;-77
2021/06/02 05:29:07;;;;;;;14.38;8.48;;;24.00;42.70;;;;;;5020072;28;20034;-78
2021/06/02 05:32:23;;;;;;;11.60;8.10;;;24.70;40.60;;;;;;5011027;28;20052;-78
2021/06/02 05:35:14;;;;;;;13.07;8.27;;;25.20;40.70;;;;;;5003717;28;20038;-78
2021/06/02 05:37:54;;;;;;;14.27;8.30;;;25.20;39.60;;;;;;5023820;28;20456;-78
2021/06/02 05:40:46;;;;;;;10.50;7.95;;;24.60;40.90;;;;;;5002768;28;20052;-77
2021/06/02 05:43:33;;;;;;;15.30;7.70;;;24.80;40.80;;;;;;5014921;28;20087;-77
2021/06/02 05:46:10;;;;;;;11.68;8.35;;;25.10;40.00;;;;;;5016234;28;20843;-78
2021/06/02 05:49:01;;;;;;;12.55;8.60;;;25.30;40.30;;;;;;5011658;28;20064;-78
2021/06/02 05:51:51;;;;;;;11.55;8.40;;;24.60;40.80;;;;;;5011542;28;20041;-78
2021/06/02 05:54:43;;;;;;;12.25;8.75;;;24.20;42.00;;;;;;5020991;28;20120;-78
2021/06/02 05:57:26;;;;;;;12.30;8.30;;;22.80;45.00;;;;;;5024134;28;20099;-78
2021/06/02 05:59:55;;;;;;;11.25;9.10;;;21.80;47.50;;;;;;5022863;28;20489;-78
2021/06/02 06:02:33;;;;;;;11.63;8.60;;;21.20;49.00;;;;;;5018361;28;20053;-79
2021/06/02 06:05:13;;;;;;;10.52;8.40;;;20.80;50.30;;;;;;5020598;28;20042;-78
2021/06/02 06:08:05;;;;;;;13.82;9.02;;;20.60;51.30;;;;;;5021504;28;20083;-79
2021/06/02 06:10:55;;;;;;;11.13;9.18;;;20.30;52.50;;;;;;5001788;28;20658;-79
2021/06/02 06:13:59;;;;;;;13.20;8.93;;;20.20;53.50;;;;;;4999987;28;20041;-78
2021/06/02 06:16:43;;;;;;;12.55;8.55;;;20.10;52.90;;;;;;5018371;28;20037;-78
2021/06/02 06:19:15;;;;;;;11.90;8.13;;;20.10;52.60;;;;;;5020261;28;20892;-74
2021/06/02 06:22:05;;;;;;;15.38;8.63;;;20.00;52.90;;;;;;5020996;28;20121;-71
2021/06/02 06:24:41;;;;;;;13.60;9.38;;;20.10;53.20;;;;;;5000598;28;20046;-70
2021/06/02 06:27:16;;;;;;;12.35;9.15;;;20.10;53.20;;;;;;5021107;28;20037;-70
2021/06/02 06:29:57;;;;;;;10.77;9.00;;;20.20;52.80;;;;;;5021489;28;20555;-70
2021/06/02 06:32:25;;;;;;;16.05;9.50;;;20.30;52.80;;;;;;5019987;28;20536;-70
2021/06/02 06:34:53;;;;;;;15.27;9.38;;;20.30;53.30;;;;;;5020652;28;20116;-72
2021/06/02 06:37:19;;;;;;;11.82;8.73;;;20.50;54.40;;;;;;5017359;28;20041;-71
2021/06/02 06:39:56;;;;;;;10.55;7.78;;;20.80;52.90;;;;;;5019625;28;20037;-74
2021/06/02 06:42:28;;;;;;;13.85;9.30;;;20.90;52.80;;;;;;5019992;28;20038;-77
2021/06/02 06:45:03;;;;;;;13.32;8.80;;;21.10;51.80;;;;;;4996082;28;20073;-76
2021/06/02 06:47:33;;;;;;;12.63;9.15;;;21.10;51.60;;;;;;5012251;28;20048;-75
2021/06/02 06:50:00;;;;;;;11.50;8.48;;;21.20;51.20;;;;;;5012179;28;20030;-70
2021/06/02 06:52:27;;;;;;;10.85;7.40;;;21.20;51.50;;;;;;5017031;28;20030;-74
2021/06/02 06:54:56;;;;;;;10.77;8.13;;;21.40;51.40;;;;;;5000363;28;20061;-72
2021/06/02 06:57:23;;;;;;;10.82;7.90;;;21.60;51.10;;;;;;4999148;28;20047;-72
2021/06/02 06:59:49;;;;;;;11.07;8.30;;;21.70;49.70;;;;;;5014688;28;20346;-72
2021/06/02 07:02:15;;;;;;;11.73;8.10;;;22.00;50.20;;;;;;5019801;28;20041;-73
2021/06/02 07:04:42;;;;;;;10.88;7.20;;;21.90;50.40;;;;;;5021554;28;20041;-74
2021/06/02 07:07:09;;;;;;;11.02;8.20;;;22.10;50.70;;;;;;5004050;28;20044;-72
2021/06/02 07:09:35;;;;;;;14.32;7.53;;;22.40;48.70;;;;;;5007860;28;20038;-76
2021/06/02 07:12:02;;;;;;;10.98;6.95;;;22.60;48.00;;;;;;4997583;28;20026;-72
2021/06/02 07:14:31;;;;;;;13.25;7.07;;;22.80;48.70;;;;;;5005870;28;20240;-78
2021/06/02 07:17:04;;;;;;;16.27;7.18;;;23.00;48.70;;;;;;5020640;28;20045;-73
2021/06/02 07:19:40;;;;;;;12.40;6.33;;;23.10;47.60;;;;;;4999812;28;20734;-72
2021/06/02 07:22:06;;;;;;;9.75;5.45;;;23.10;46.50;;;;;;4997659;28;20038;-71
2021/06/02 07:24:33;;;;;;;8.02;5.00;;;23.30;46.30;;;;;;5009241;28;20075;-72
2021/06/02 07:26:59;;;;;;;9.57;5.10;;;23.40;45.10;;;;;;5018507;28;20037;-71
2021/06/02 07:29:25;;;;;;;10.35;5.32;;;23.50;44.50;;;;;;5019289;28;20384;-71
2021/06/02 07:31:52;;;;;;;8.48;5.35;;;23.60;44.20;;;;;;5019386;28;20484;-72
2021/06/02 07:34:20;;;;;;;8.48;4.60;;;23.60;44.50;;;;;;5017414;28;20083;-74
2021/06/02 07:36:45;;;;;;;9.32;5.15;;;23.80;46.40;;;;;;5019257;28;20404;-71
2021/06/02 07:39:12;;;;;;;9.75;5.30;;;23.70;45.00;;;;;;5018222;28;20048;-72
2021/06/02 07:41:38;;;;;;;9.40;5.15;;;23.70;44.60;;;;;;5017871;28;20041;-72
2021/06/02 07:44:04;;;;;;;8.35;5.00;;;23.80;44.40;;;;;;5017837;28;20049;-72
2021/06/02 07:46:34;;;;;;;8.07;4.75;;;24.00;43.50;;;;;;5019212;28;20036;-71
2021/06/02 07:49:00;;;;;;;9.00;5.10;;;24.10;43.30;;;;;;5019533;28;20037;-71
2021/06/02 07:51:26;;;;;;;8.90;5.25;;;24.10;42.70;;;;;;5018493;28;20469;-71
2021/06/02 07:53:51;;;;;;;8.55;4.20;;;24.00;43.60;;;;;;5020421;28;20044;-75
2021/06/02 07:56:17;;;;;;;10.55;4.97;;;24.10;44.00;;;;;;5019555;28;20468;-72
2021/06/02 07:58:42;;;;;;;8.80;5.88;;;24.30;43.80;;;;;;5021060;28;20048;-72
2021/06/02 08:01:08;;;;;;;7.40;4.57;;;24.30;43.30;;;;;;5020174;28;20041;-71
2021/06/02 08:03:34;;;;;;;9.10;5.40;;;24.50;43.60;;;;;;5015530;28;20389;-72
2021/06/02 08:06:00;;;;;;;8.52;4.95;;;24.50;41.70;;;;;;4997098;28;20558;-73
2021/06/02 08:08:25;;;;;;;6.38;4.18;;;24.50;42.80;;;;;;5005515;28;20473;-78
2021/06/02 08:10:51;;;;;;;9.23;4.60;;;24.60;42.20;;;;;;5017803;28;20627;-72
2021/06/02 08:13:17;;;;;;;11.23;6.20;;;24.80;42.80;;;;;;5017447;28;20042;-74
2021/06/02 08:15:42;;;;;;;9.48;5.15;;;24.90;42.40;;;;;;5024506;28;20436;-73
2021/06/02 08:18:08;;;;;;;11.13;5.03;;;25.20;42.80;;;;;;5020278;28;20452;-71
2021/06/02 08:20:34;;;;;;;8.90;5.22;;;25.10;43.10;;;;;;5017402;28;20436;-73
2021/06/02 08:22:59;;;;;;;6.78;4.47;;;25.30;42.90;;;;;;5021583;28;20029;-75
2021/06/02 08:25:25;;;;;;;7.32;4.38;;;25.50;42.60;;;;;;5015893;28;20041;-76
2021/06/02 08:27:51;;;;;;;6.82;4.20;;;25.50;41.40;;;;;;5017220;28;20065;-74
2021/06/02 08:30:17;;;;;;;8.57;4.13;;;25.50;40.60;;;;;;5017002;28;20040;-72
2021/06/02 08:32:48;;;;;;;7.57;4.35;;;25.80;40.00;;;;;;5033429;27;1432217;-71
2021/06/02 08:35:18;;;;;;;8.68;3.95;;;26.00;40.20;;;;;;5055568;28;20068;-71
2021/06/02 08:37:45;;;;;;;6.30;4.15;;;26.30;39.10;;;;;;5055989;28;20048;-75
2021/06/02 08:40:13;;;;;;;10.23;4.35;;;26.50;39.30;;;;;;5056435;28;20028;-70
2021/06/02 08:42:43;;;;;;;6.93;3.95;;;26.40;38.10;;;;;;5056572;28;20051;-70
2021/06/02 08:45:10;;;;;;;9.90;4.00;;;26.50;37.10;;;;;;5051086;28;20037;-74
2021/06/02 08:47:36;;;;;;;8.00;4.00;;;26.60;39.80;;;;;;5051649;28;20040;-71
2021/06/02 08:50:04;;;;;;;7.22;3.75;;;26.70;37.90;;;;;;5057991;28;20070;-73
2021/06/02 08:52:33;;;;;;;11.80;4.45;;;26.80;37.70;;;;;;5055136;28;20037;-76
2021/06/02 08:54:59;;;;;;;9.70;4.32;;;27.00;38.10;;;;;;5052100;28;20171;-70
2021/06/02 08:57:25;;;;;;;9.05;3.80;;;26.80;38.10;;;;;;5042523;28;20475;-74
2021/06/02 08:59:50;;;;;;;11.18;3.97;;;26.70;37.40;;;;;;5047519;28;20029;-71
2021/06/02 09:02:16;;;;;;;7.97;4.10;;;27.10;38.40;;;;;;5045665;28;20045;-70
2021/06/02 09:04:42;;;;;;;9.77;3.72;;;27.30;36.50;;;;;;5049567;28;20047;-73
2021/06/02 09:07:08;;;;;;;9.85;3.55;;;27.30;37.30;;;;;;5042742;28;20443;-74
2021/06/02 09:09:34;;;;;;;8.68;3.90;;;27.40;35.70;;;;;;5052336;28;20047;-80
2021/06/02 09:12:06;;;;;;;7.07;3.67;;;27.50;36.60;;;;;;5042625;28;20048;-72
2021/06/02 09:14:37;;;;;;;8.50;3.70;;;27.30;34.10;;;;;;5068317;28;20036;-73
2021/06/02 09:17:05;;;;;;;7.40;3.22;;;26.70;34.50;;;;;;5060806;28;20079;-70
2021/06/02 09:19:35;;;;;;;8.30;3.42;;;26.90;34.70;;;;;;5057020;28;20052;-71
2021/06/02 09:22:01;;;;;;;6.35;3.10;;;26.90;35.60;;;;;;5057872;28;20095;-70
2021/06/02 09:24:56;;;;;;;8.00;3.33;;;27.30;33.00;;;;;;5055933;28;20041;-74
2021/06/02 09:27:50;;;;;;;8.80;3.60;;;27.60;33.80;;;;;;5056146;28;20127;-70
2021/06/02 09:30:21;;;;;;;10.25;3.30;;;28.00;33.20;;;;;;5054671;28;20380;-72
2021/06/02 09:33:05;;;;;;;7.85;3.03;;;28.00;32.00;;;;;;5051396;28;20555;-75
2021/06/02 09:35:34;;;;;;;;;;;28.20;32.90;;;;;;5055775;28;20036;-80
2021/06/02 09:38:01;;;;;;;6.30;3.03;;;28.40;31.80;;;;;;5057364;28;20273;-74
2021/06/02 09:40:36;;;;;;;6.13;2.78;;;28.30;30.90;;;;;;5055270;28;20055;-75
2021/06/02 09:43:03;;;;;;;6.18;3.03;;;28.30;29.80;;;;;;5050208;28;20541;-74
2021/06/02 09:45:29;;;;;;;7.32;3.38;;;28.40;31.00;;;;;;5042917;28;20033;-74
2021/06/02 09:47:57;;;;;;;6.72;3.25;;;28.60;31.20;;;;;;5042499;28;20060;-74
2021/06/02 09:50:39;;;;;;;7.32;2.95;;;28.60;29.40;;;;;;5041236;28;20041;-70
2021/06/02 09:53:08;;;;;;;8.15;3.13;;;28.60;30.60;;;;;;5041171;28;20507;-73
2021/06/02 09:55:38;;;;;;;6.05;3.10;;;28.90;30.80;;;;;;5039558;28;20519;-74
2021/06/02 09:58:07;;;;;;;10.43;3.70;;;28.50;30.80;;;;;;5039897;28;20124;-72
2021/06/02 10:00:37;;;;;;;9.65;3.60;;;28.50;31.30;;;;;;5038706;28;20477;-71
2021/06/02 10:03:12;;;;;;;5.43;3.38;;;28.60;32.00;;;;;;5040317;28;20459;-72
2021/06/02 10:05:47;;;;;;;8.07;3.70;;;28.80;31.10;;;;;;5043574;28;20037;-71
2021/06/02 10:08:24;;;;;;;8.82;3.33;;;28.70;30.90;;;;;;5039327;28;20040;-72
2021/06/02 10:10:53;;;;;;;9.38;3.30;;;28.90;31.40;;;;;;5041892;28;20036;-73
2021/06/02 10:13:21;;;;;;;6.40;2.95;;;28.90;31.00;;;;;;5042699;28;20045;-76
2021/06/02 10:15:49;;;;;;;8.52;3.20;;;29.10;31.40;;;;;;5036287;28;20044;-72
2021/06/02 10:18:29;;;;;;;5.82;3.30;;;29.30;31.80;;;;;;5039695;28;20040;-74
2021/06/02 10:20:58;;;;;;;7.53;3.15;;;29.30;31.50;;;;;;5042474;28;20472;-75
2021/06/02 10:23:25;;;;;;;10.38;4.15;;;29.60;31.60;;;;;;5043063;28;20043;-73
2021/06/02 10:25:52;;;;;;;9.43;3.67;;;29.10;30.30;;;;;;5040848;28;20469;-72
2021/06/02 10:28:18;;;;;;;7.03;3.10;;;28.70;32.40;;;;;;5035823;28;20120;-77
2021/06/02 10:30:44;;;;;;;7.10;3.50;;;29.00;33.40;;;;;;5040565;28;20048;-75
2021/06/02 10:33:09;;;;;;;13.75;3.90;;;29.20;31.50;;;;;;5040081;28;20053;-73
2021/06/02 10:35:35;;;;;;;9.52;3.53;;;29.30;31.30;;;;;;5042114;28;20128;-73
2021/06/02 10:38:02;;;;;;;6.75;3.40;;;29.30;31.80;;;;;;5039009;28;20068;-73
2021/06/02 10:40:29;;;;;;;8.98;3.35;;;29.40;31.30;;;;;;5036320;28;20041;-76
2021/06/02 10:43:20;;;;;;;6.15;3.28;;;29.50;32.70;;;;;;5048420;28;20373;-76
2021/06/02 10:45:52;;;;;;;6.03;3.13;;;29.70;31.60;;;;;;5034943;28;20090;-73
2021/06/02 10:48:41;;;;;;;7.95;3.30;;;29.90;31.40;;;;;;5040314;28;20041;-72
2021/06/02 10:51:41;;;;;;;8.90;3.88;;;29.60;31.00;;;;;;5039158;28;20068;-81
2021/06/02 10:54:14;;;;;;;6.68;3.83;;;29.80;31.30;;;;;;5040878;28;20152;-76
2021/06/02 10:57:00;;;;;;;6.65;3.30;;;30.20;31.00;;;;;;5041732;28;20041;-74
2021/06/02 10:59:35;;;;;;;7.57;3.35;;;30.20;31.10;;;;;;5030833;28;20060;-75
2021/06/02 11:02:28;;;;;;;7.13;2.63;;;30.40;30.90;;;;;;5040793;28;20166;-73
2021/06/02 11:04:57;;;;;;;7.07;3.45;;;30.60;29.70;;;;;;5038950;28;20059;-77
2021/06/02 11:07:30;;;;;;;7.22;2.95;;;30.50;28.00;;;;;;5041123;28;20134;-72
2021/06/02 11:10:04;;;;;;;7.15;2.90;;;30.20;29.40;;;;;;5041888;28;20034;-74
2021/06/02 11:12:49;;;;;;;7.45;3.10;;;30.50;30.40;;;;;;5052978;28;21283;-72
2021/06/02 11:15:34;;;;;;;6.18;3.35;;;30.50;29.60;;;;;;5037204;28;20037;-73
2021/06/02 11:18:09;;;;;;;6.00;2.72;;;30.50;29.40;;;;;;5039455;28;20403;-74
2021/06/02 11:20:41;;;;;;;6.05;2.83;;;30.50;29.80;;;;;;5038301;28;20040;-73
2021/06/02 11:23:12;;;;;;;5.72;2.90;;;30.60;28.90;;;;;;5037704;28;20056;-76
2021/06/02 11:25:39;;;;;;;6.00;2.92;;;30.70;28.60;;;;;;5040775;28;20128;-80
2021/06/02 11:28:06;;;;;;;7.07;3.03;;;30.70;28.90;;;;;;5037918;28;20067;-74
2021/06/02 11:30:33;;;;;;;5.63;2.70;;;31.00;29.20;;;;;;5039882;28;20041;-77
2021/06/02 11:33:11;;;;;;;5.22;2.67;;;30.90;29.30;;;;;;5039167;28;20040;-74
2021/06/02 11:36:15;;;;;;;6.57;3.05;;;31.00;28.20;;;;;;5038958;28;20029;-76
2021/06/02 11:38:42;;;;;;;5.75;2.92;;;30.70;27.50;;;;;;5014516;28;20042;-73
2021/06/02 11:41:09;;;;;;;6.97;2.92;;;30.80;28.10;;;;;;5019422;28;20053;-73
2021/06/02 11:43:35;;;;;;;5.78;2.80;;;30.80;28.50;;;;;;5027106;28;20059;-73
2021/06/02 11:46:01;;;;;;;6.95;2.92;;;30.80;28.00;;;;;;5040179;28;20057;-73
2021/06/02 11:48:29;;;;;;;7.82;3.35;;;30.90;28.80;;;;;;5038745;28;20388;-73
2021/06/02 11:50:58;;;;;;;4.85;2.97;;;31.00;29.20;;;;;;5035762;28;20083;-77
2021/06/02 11:53:41;;;;;;;6.50;2.42;;;31.10;29.10;;;;;;5037399;28;20120;-72
2021/06/02 11:56:07;;;;;;;6.90;2.50;;;30.70;29.10;;;;;;5035970;28;20036;-72
2021/06/02 11:58:33;;;;;;;6.50;3.20;;;31.00;28.20;;;;;;5037175;28;20673;-72
2021/06/02 12:00:59;;;;;;;5.43;2.80;;;30.80;28.00;;;;;;5035730;28;20048;-76
2021/06/02 12:03:25;;;;;;;5.32;2.83;;;30.70;28.80;;;;;;5039482;28;20030;-76
2021/06/02 12:05:54;;;;;;;5.00;2.92;;;30.50;28.30;;;;;;5039919;28;20422;-70
2021/06/02 12:08:20;;;;;;;4.43;2.20;;;30.90;28.10;;;;;;5045590;28;20041;-72
2021/06/02 12:10:57;;;;;;;5.50;2.40;;;31.00;28.60;;;;;;5041213;28;20036;-71
2021/06/02 12:13:41;;;;;;;5.32;2.70;;;31.00;27.70;;;;;;5048313;28;20368;-72
2021/06/02 12:16:12;;;;;;;4.57;2.60;;;31.10;27.90;;;;;;5041262;28;20048;-73
2021/06/02 12:18:50;;;;;;;8.10;2.92;;;31.00;28.00;;;;;;5043517;28;20380;-72
2021/06/02 12:21:30;;;;;;;5.78;2.60;;;31.00;27.50;;;;;;5040828;28;20025;-73
2021/06/02 12:24:07;;;;;;;5.45;2.75;;;30.70;27.80;;;;;;5054359;28;20040;-72
2021/06/02 12:26:36;;;;;;;4.70;2.60;;;31.00;28.80;;;;;;5042370;28;20040;-84
2021/06/02 12:29:07;;;;;;;5.30;2.70;;;31.00;29.40;;;;;;5040912;28;20034;-72
2021/06/02 12:31:37;;;;;;;6.35;2.67;;;31.20;28.40;;;;;;5036333;28;20107;-73
2021/06/02 12:34:16;;;;;;;4.78;2.40;;;31.40;28.10;;;;;;5041734;28;20040;-75
2021/06/02 12:36:44;;;;;;;4.28;2.58;;;31.50;27.60;;;;;;5038984;28;20029;-79
2021/06/02 12:39:13;;;;;;;5.20;2.50;;;31.50;28.80;;;;;;5040507;28;20384;-74
2021/06/02 12:41:42;;;;;;;4.93;2.70;;;31.40;28.20;;;;;;5046334;28;20120;-72
2021/06/02 12:44:09;;;;;;;4.32;2.42;;;31.60;28.70;;;;;;5043631;28;20492;-73
2021/06/02 12:46:34;;;;;;;5.80;2.80;;;31.90;28.30;;;;;;5040867;28;20036;-73
2021/06/02 12:49:08;;;;;;;6.45;2.83;;;32.00;27.90;;;;;;5046537;28;20025;-71
2021/06/02 12:51:34;;;;;;;5.70;2.83;;;31.90;28.70;;;;;;5055206;28;20401;-72
2021/06/02 12:54:01;;;;;;;4.75;2.30;;;31.70;28.60;;;;;;5041956;28;20033;-72
2021/06/02 12:56:27;;;;;;;5.55;2.67;;;31.80;28.60;;;;;;5036535;28;20037;-72
2021/06/02 12:58:55;;;;;;;4.00;2.75;;;31.60;28.10;;;;;;5033534;28;20082;-73
2021/06/02 13:01:28;;;;;;;7.80;3.13;;;31.50;28.90;;;;;;5036307;28;20064;-72
2021/06/02 13:03:55;;;;;;;10.05;3.40;;;31.60;29.90;;;;;;5037798;28;20095;-79
2021/06/02 13:06:23;;;;;;;5.63;2.95;;;31.70;29.40;;;;;;5034962;28;20488;-73
2021/06/02 13:08:50;;;;;;;5.35;2.90;;;31.80;30.10;;;;;;5042125;28;20049;-72
2021/06/02 13:11:28;;;;;;;7.10;3.08;;;31.60;28.80;;;;;;5032301;28;20530;-74
2021/06/02 13:13:56;;;;;;;6.53;2.78;;;31.70;29.10;;;;;;5037396;28;20048;-71
2021/06/02 13:16:22;;;;;;;6.82;2.75;;;31.80;29.70;;;;;;5042794;28;20086;-72
2021/06/02 13:18:58;;;;;;;3.97;2.65;;;32.10;30.40;;;;;;5045267;28;20047;-71
2021/06/02 13:21:28;;;;;;;8.98;3.00;;;32.10;28.80;;;;;;5046431;28;20400;-74